Time;durP1;ratioP1;P1;durP2;ratioP2;P2;SDS_P1;SDS_P2;PMS_P1;PMS_P2;Temp;Humidity;BMP_temperature;BMP_pressure;BME280_temperature;BME280_humidity;BME280_pressure;Samples;Min_cycle;Max_cycle;Signal;HPM_P1;HPM_P2
2023/12/21 00:03:02;;;;;;;7.30;3.90;;;;;;;3.31;84.03;97909.02;226246;1274;22538;-71
2023/12/21 00:08:06;;;;;;;6.90;3.80;;;;;;;3.24;83.80;97902.28;226476;1274;22529;-72
2023/12/21 00:13:08;;;;;;;4.80;3.40;;;;;;;3.18;84.08;97890.05;226478;1269;22534;-73
2023/12/21 00:18:10;;;;;;;5.30;2.90;;;;;;;3.15;83.97;97890.36;226439;1273;22560;-71
2023/12/21 00:23:12;;;;;;;5.00;2.90;;;;;;;3.16;84.24;97884.91;226424;1272;22580;-73
2023/12/21 00:28:14;;;;;;;4.50;2.70;;;;;;;3.19;84.10;97876.93;226499;1269;22549;-72
2023/12/21 00:33:17;;;;;;;3.20;2.20;;;;;;;3.24;84.52;97868.36;226486;1272;22544;-73
2023/12/21 00:38:19;;;;;;;2.40;1.90;;;;;;;3.30;84.22;97858.19;226407;1269;22527;-72
2023/12/21 00:43:21;;;;;;;2.50;2.00;;;;;;;3.32;84.40;97857.93;226462;1273;22533;-71
2023/12/21 00:48:23;;;;;;;2.50;1.60;;;;;;;3.34;84.04;97853.69;226431;1273;22553;-71
2023/12/21 00:53:25;;;;;;;2.40;1.50;;;;;;;3.37;84.21;97850.63;226477;1272;22568;-74
2023/12/21 00:58:27;;;;;;;1.90;1.50;;;;;;;3.40;83.90;97847.27;226513;1272;22533;-72
2023/12/21 01:03:29;;;;;;;1.70;1.00;;;;;;;3.45;84.26;97842.11;226453;1273;25932;-72
2023/12/21 01:08:32;;;;;;;1.70;1.20;;;;;;;3.48;83.94;97840.02;226514;1272;22536;-71
2023/12/21 01:13:34;;;;;;;1.80;1.20;;;;;;;3.50;84.07;97838.75;226322;1273;22548;-72
2023/12/21 01:18:37;;;;;;;1.80;0.90;;;;;;;3.53;83.99;97834.93;226446;1274;22563;-72
2023/12/21 01:23:39;;;;;;;1.10;1.00;;;;;;;3.57;83.80;97840.63;226462;1274;22560;-72
2023/12/21 01:28:41;;;;;;;2.50;1.20;;;;;;;3.59;83.96;97834.29;226423;1272;22685;-72
2023/12/21 01:33:43;;;;;;;2.60;1.50;;;;;;;3.62;83.91;97828.01;226487;1272;22555;-70
2023/12/21 01:38:45;;;;;;;1.90;1.30;;;;;;;3.65;83.81;97822.33;226482;1269;22562;-72
2023/12/21 01:43:48;;;;;;;1.60;1.30;;;;;;;3.68;83.82;97812.79;226395;1274;22550;-73
2023/12/21 01:48:52;;;;;;;2.40;1.50;;;;;;;3.69;84.21;97795.42;226411;1272;22580;-72
2023/12/21 01:53:55;;;;;;;2.50;1.30;;;;;;;3.71;84.48;97793.60;226466;1273;25130;-73
2023/12/21 01:58:57;;;;;;;1.70;1.50;;;;;;;3.73;84.09;97780.88;226510;1272;22565;-72
2023/12/21 02:03:59;;;;;;;1.40;1.20;;;;;;;3.75;83.88;97769.48;226417;1274;22540;-73
2023/12/21 02:09:02;;;;;;;2.10;1.50;;;;;;;3.76;83.84;97767.95;226425;1264;22537;-72
2023/12/21 02:14:04;;;;;;;2.40;1.20;;;;;;;3.77;83.88;97762.10;226461;1272;22536;-72
2023/12/21 02:19:09;;;;;;;2.40;1.50;;;;;;;3.79;84.01;97752.11;226474;1272;22530;-73
2023/12/21 02:24:16;;;;;;;1.30;1.00;;;;;;;3.81;83.63;97744.79;226458;1272;22556;-72
2023/12/21 02:29:18;;;;;;;1.70;1.20;;;;;;;3.81;83.46;97737.80;226519;1272;22537;-73
2023/12/21 02:34:20;;;;;;;1.60;1.40;;;;;;;3.81;83.67;97733.59;226497;1269;22540;-73
2023/12/21 02:39:22;;;;;;;3.00;1.50;;;;;;;3.82;83.38;97724.50;226478;1274;22537;-72
2023/12/21 02:44:24;;;;;;;2.70;1.70;;;;;;;3.81;83.65;97711.84;226447;1266;22571;-72
2023/12/21 02:49:26;;;;;;;1.90;1.50;;;;;;;3.79;83.57;97696.04;226439;1274;22544;-72
2023/12/21 02:54:29;;;;;;;3.20;1.50;;;;;;;3.74;83.38;97684.40;226407;1272;24300;-72
2023/12/21 02:59:31;;;;;;;2.80;1.70;;;;;;;3.67;83.57;97676.92;226441;1274;22549;-72
2023/12/21 03:04:33;;;;;;;3.10;1.90;;;;;;;3.56;83.42;97663.77;226396;1270;22561;-71
2023/12/21 03:09:35;;;;;;;2.90;1.80;;;;;;;3.47;83.53;97652.83;226496;1272;22568;-72
2023/12/21 03:14:37;;;;;;;2.90;1.60;;;;;;;3.38;83.56;97643.57;226423;1269;22556;-73
2023/12/21 03:19:39;;;;;;;2.90;1.80;;;;;;;3.31;83.60;97638.23;226494;1273;22558;-72
2023/12/21 03:24:42;;;;;;;3.00;2.00;;;;;;;3.24;83.77;97627.55;226506;1273;22573;-72
2023/12/21 03:29:44;;;;;;;2.00;1.50;;;;;;;3.19;83.70;97614.59;226380;1270;22547;-73
2023/12/21 03:34:46;;;;;;;2.30;1.70;;;;;;;3.12;83.78;97598.27;226524;1273;22539;-72
2023/12/21 03:39:48;;;;;;;2.10;1.30;;;;;;;3.07;84.04;97587.24;226366;1273;25354;-72
2023/12/21 03:44:50;;;;;;;3.00;1.90;;;;;;;3.02;84.06;97570.01;226451;1273;22541;-73
2023/12/21 03:49:52;;;;;;;2.10;1.80;;;;;;;2.95;84.10;97560.68;226434;1273;25250;-73
2023/12/21 03:54:54;;;;;;;3.60;2.20;;;;;;;2.87;83.90;97560.36;226437;1269;22537;-73
2023/12/21 03:59:56;;;;;;;4.10;2.40;;;;;;;2.82;84.36;97552.78;226435;1273;22545;-73
2023/12/21 04:04:59;;;;;;;3.20;2.10;;;;;;;2.80;84.36;97547.04;226418;1269;22557;-73
2023/12/21 04:10:01;;;;;;;4.10;2.20;;;;;;;2.81;84.16;97538.94;226464;1269;22548;-72
2023/12/21 04:15:04;;;;;;;3.00;2.00;;;;;;;2.84;84.35;97524.66;226488;1273;22547;-72
2023/12/21 04:20:07;;;;;;;2.70;2.00;;;;;;;2.90;84.50;97513.59;226725;1274;22767;-73
2023/12/21 04:25:09;;;;;;;2.70;1.90;;;;;;;2.97;84.44;97511.99;226668;1274;22568;-73
2023/12/21 04:30:12;;;;;;;3.00;1.90;;;;;;;3.03;84.26;97505.98;226485;1273;22604;-74
2023/12/21 04:35:14;;;;;;;3.40;2.10;;;;;;;3.08;84.11;97491.42;226410;1273;22541;-71
2023/12/21 04:40:16;;;;;;;4.00;2.40;;;;;;;3.12;84.05;97489.56;226546;1273;22531;-71
2023/12/21 04:45:18;;;;;;;2.80;1.70;;;;;;;3.17;84.20;97472.73;226476;1272;22547;-73
2023/12/21 04:50:21;;;;;;;2.40;1.80;;;;;;;3.23;83.93;97469.58;226446;1272;22547;-72
2023/12/21 04:55:23;;;;;;;2.80;2.10;;;;;;;3.30;84.16;97463.49;226418;1274;23092;-73
2023/12/21 05:00:29;;;;;;;2.20;1.70;;;;;;;3.35;83.91;97452.79;226437;1272;22560;-72
2023/12/21 05:05:31;;;;;;;4.80;1.90;;;;;;;3.41;83.98;97432.65;226424;1274;22556;-72
2023/12/21 05:10:34;;;;;;;2.60;1.50;;;;;;;3.45;84.24;97425.76;226571;1272;23211;-73
2023/12/21 05:15:36;;;;;;;1.60;1.40;;;;;;;3.47;83.97;97415.56;226493;1273;22548;-72
2023/12/21 05:20:38;;;;;;;1.80;1.40;;;;;;;3.49;84.00;97409.12;226273;1266;22563;-74
2023/12/21 05:25:40;;;;;;;1.90;1.30;;;;;;;3.51;84.17;97412.89;226504;1274;22578;-73
2023/12/21 05:30:43;;;;;;;1.70;1.30;;;;;;;3.52;84.13;97407.04;226418;1274;24373;-72
2023/12/21 05:35:45;;;;;;;1.30;1.10;;;;;;;3.54;84.04;97399.66;226356;1272;22544;-73
2023/12/21 05:40:47;;;;;;;1.90;1.20;;;;;;;3.53;83.98;97391.41;226496;1273;23404;-73
2023/12/21 05:45:49;;;;;;;1.40;1.00;;;;;;;3.51;83.85;97389.81;226381;1272;22538;-73
2023/12/21 05:50:51;;;;;;;2.30;1.20;;;;;;;3.50;83.96;97392.23;226456;1273;24636;-74
2023/12/21 05:55:54;;;;;;;3.70;1.20;;;;;;;3.48;84.40;97388.27;226509;1274;22535;-73
2023/12/21 06:00:56;;;;;;;3.30;1.50;;;;;;;3.45;84.32;97386.80;226504;1274;23637;-74
2023/12/21 06:05:58;;;;;;;2.70;1.20;;;;;;;3.39;84.44;97383.31;226392;1273;22578;-71
2023/12/21 06:11:00;;;;;;;2.60;1.10;;;;;;;3.32;84.78;97375.91;226489;1273;22533;-74
2023/12/21 06:16:02;;;;;;;1.80;1.10;;;;;;;3.26;84.84;97371.93;226563;1274;22545;-72
2023/12/21 06:21:05;;;;;;;2.50;1.40;;;;;;;3.23;85.57;97365.17;226436;1274;22544;-73
2023/12/21 06:26:07;;;;;;;2.20;1.30;;;;;;;3.22;85.42;97365.73;226536;1273;22540;-74
2023/12/21 06:31:13;;;;;;;2.50;1.70;;;;;;;3.23;85.67;97364.78;226530;1274;22549;-75
2023/12/21 06:36:16;;;;;;;3.80;1.60;;;;;;;3.20;86.47;97370.67;226554;1273;24241;-73
2023/12/21 06:41:18;;;;;;;2.40;1.70;;;;;;;3.16;87.29;97364.64;226507;1273;25290;-75
2023/12/21 06:46:21;;;;;;;4.10;1.50;;;;;;;3.12;87.18;97368.09;226539;1273;22537;-74
2023/12/21 06:51:23;;;;;;;4.90;1.90;;;;;;;3.07;86.56;97362.96;226292;1266;22556;-73
2023/12/21 06:56:25;;;;;;;5.00;2.20;;;;;;;3.03;86.89;97365.98;226323;1273;22642;-75
2023/12/21 07:01:36;;;;;;;3.60;1.80;;;;;;;3.00;87.02;97367.58;226094;1251;22513;-75
2023/12/21 07:06:38;;;;;;;3.10;2.30;;;;;;;2.98;86.98;97365.92;225688;1254;22549;-73
2023/12/21 07:11:40;;;;;;;4.80;2.10;;;;;;;2.95;87.32;97370.92;226093;1268;22623;-75
2023/12/21 07:16:42;;;;;;;2.80;2.00;;;;;;;2.93;87.65;97377.45;225922;1267;22588;-74
2023/12/21 07:21:44;;;;;;;2.60;1.40;;;;;;;2.88;87.41;97363.55;225944;1267;22573;-75
2023/12/21 07:26:46;;;;;;;4.40;2.20;;;;;;;2.83;87.61;97363.66;225998;1257;22571;-75
2023/12/21 07:31:49;;;;;;;2.70;1.70;;;;;;;2.79;87.53;97362.05;225859;1264;22553;-75
2023/12/21 07:36:51;;;;;;;5.80;2.90;;;;;;;2.78;87.46;97345.81;225917;1259;22578;-75
2023/12/21 07:41:53;;;;;;;2.90;2.10;;;;;;;2.79;87.81;97340.48;225839;1251;23418;-75
2023/12/21 07:46:55;;;;;;;4.60;2.90;;;;;;;2.83;87.76;97333.56;225687;1253;25076;-75
2023/12/21 07:51:57;;;;;;;2.90;1.80;;;;;;;2.92;87.90;97328.39;225651;1254;22580;-74
2023/12/21 07:56:59;;;;;;;4.20;2.50;;;;;;;3.01;88.54;97329.94;225704;1260;25199;-77
2023/12/21 08:02:01;;;;;;;5.60;2.70;;;;;;;3.11;88.51;97329.39;225850;1257;26750;-78
2023/12/21 08:07:04;;;;;;;4.30;2.40;;;;;;;3.24;88.12;97319.27;225872;1260;22549;-78
2023/12/21 08:12:06;;;;;;;4.40;2.20;;;;;;;3.34;87.75;97305.80;225852;1264;22539;-77
2023/12/21 08:17:10;;;;;;;3.40;1.80;;;;;;;3.43;87.83;97300.67;225855;1254;22541;-78
2023/12/21 08:22:12;;;;;;;3.60;2.10;;;;;;;3.52;87.79;97302.42;225891;1251;22545;-79
2023/12/21 08:27:14;;;;;;;5.20;2.80;;;;;;;3.55;87.65;97293.38;225999;1267;22897;-78
2023/12/21 08:32:19;;;;;;;3.30;2.10;;;;;;;3.58;87.85;97280.42;225914;1260;22555;-78
2023/12/21 08:37:21;;;;;;;3.40;2.20;;;;;;;3.68;87.52;97267.71;225931;1250;22540;-75
2023/12/21 08:42:23;;;;;;;5.80;2.60;;;;;;;3.81;87.72;97259.40;226342;1266;22569;-74
2023/12/21 08:47:27;;;;;;;4.30;2.60;;;;;;;3.97;87.64;97250.92;225895;1259;22595;-74
2023/12/21 08:52:29;;;;;;;3.90;2.30;;;;;;;4.14;87.11;97236.21;225878;1266;22535;-74
2023/12/21 08:57:34;;;;;;;3.90;1.90;;;;;;;4.26;86.59;97212.45;225897;1269;22555;-75
2023/12/21 09:02:37;;;;;;;4.10;2.20;;;;;;;4.36;86.60;97186.05;225899;1266;22594;-75
2023/12/21 09:07:40;;;;;;;3.10;1.70;;;;;;;4.37;86.22;97169.27;225998;1270;22551;-75
2023/12/21 09:12:42;;;;;;;3.10;1.90;;;;;;;4.35;85.54;97146.20;226054;1264;22580;-74
2023/12/21 09:17:46;;;;;;;4.20;1.90;;;;;;;4.35;85.76;97136.63;225987;1259;22568;-74
2023/12/21 09:22:48;;;;;;;4.20;2.30;;;;;;;4.37;85.38;97117.09;225997;1259;22554;-73
2023/12/21 09:27:53;;;;;;;3.00;1.70;;;;;;;4.38;85.60;97112.68;225997;1260;22597;-76
2023/12/21 09:32:56;;;;;;;2.70;1.60;;;;;;;4.39;85.30;97108.46;226026;1266;22526;-77
2023/12/21 09:37:58;;;;;;;2.10;1.40;;;;;;;4.40;85.34;97104.62;225817;1254;22580;-75
2023/12/21 09:43:03;;;;;;;2.90;1.90;;;;;;;4.45;85.34;97092.86;225852;1260;22647;-75
2023/12/21 09:48:17;;;;;;;3.00;1.80;;;;;;;4.51;85.48;97094.27;226302;1253;25363;-75
2023/12/21 09:53:22;;;;;;;3.70;2.10;;;;;;;4.62;85.12;97080.41;225984;1250;22585;-77
2023/12/21 09:58:25;;;;;;;2.90;1.60;;;;;;;4.72;84.92;97061.16;225865;1266;24391;-76
2023/12/21 10:03:27;;;;;;;3.50;1.80;;;;;;;4.80;84.76;97058.79;226070;1250;22541;-75
2023/12/21 10:08:33;;;;;;;2.30;1.60;;;;;;;4.85;84.60;97045.48;226017;1269;24295;-77
2023/12/21 10:13:35;;;;;;;3.20;1.80;;;;;;;4.83;84.98;97033.77;225884;1254;24949;-75
2023/12/21 10:18:37;;;;;;;2.80;1.80;;;;;;;4.86;84.66;97015.30;225954;1266;24234;-77
2023/12/21 10:23:39;;;;;;;2.50;1.60;;;;;;;4.85;84.64;96991.55;225917;1257;23220;-77
2023/12/21 10:28:43;;;;;;;3.10;1.60;;;;;;;4.83;84.45;96982.16;225926;1268;22971;-76
2023/12/21 10:33:45;;;;;;;3.50;1.70;;;;;;;4.84;84.41;96964.06;225899;1266;22589;-77
2023/12/21 10:38:47;;;;;;;3.10;1.50;;;;;;;4.87;84.46;96955.30;225907;1266;22566;-76
2023/12/21 10:43:52;;;;;;;1.80;1.10;;;;;;;4.91;84.67;96941.68;226000;1270;22640;-76
2023/12/21 10:48:54;;;;;;;1.90;1.20;;;;;;;4.95;84.44;96930.50;225820;1251;22547;-76
2023/12/21 10:53:58;;;;;;;2.00;1.30;;;;;;;4.96;84.46;96912.08;225679;1261;23060;-75
2023/12/21 10:59:02;;;;;;;3.20;1.60;;;;;;;4.93;84.48;96882.48;225832;1266;22549;-76
2023/12/21 11:04:05;;;;;;;4.60;2.70;;;;;;;4.92;84.61;96870.20;225813;1256;22549;-77
2023/12/21 11:09:11;;;;;;;3.40;1.90;;;;;;;4.90;84.82;96858.13;225643;1263;22590;-78
2023/12/21 11:14:13;;;;;;;2.30;1.60;;;;;;;4.87;84.95;96844.96;225863;1251;22541;-78
2023/12/21 11:19:22;;;;;;;3.00;1.70;;;;;;;4.85;84.73;96823.79;225905;1266;22969;-77
2023/12/21 11:24:25;;;;;;;3.10;1.60;;;;;;;4.81;84.72;96810.58;225887;1251;22559;-78
2023/12/21 11:29:28;;;;;;;2.20;1.60;;;;;;;4.78;84.73;96809.44;225839;1262;91096;-78
2023/12/21 11:34:37;;;;;;;1.70;1.50;;;;;;;4.75;85.45;96794.41;226031;1266;22570;-78
2023/12/21 11:39:40;;;;;;;1.70;1.20;;;;;;;4.72;84.93;96779.27;226035;1250;22561;-76
2023/12/21 11:44:49;;;;;;;2.00;1.50;;;;;;;4.71;85.56;96757.46;225723;1260;22925;-76
2023/12/21 11:50:09;;;;;;;1.60;1.20;;;;;;;4.69;85.64;96742.56;225964;1266;22808;-78
2023/12/21 11:55:26;;;;;;;1.90;1.30;;;;;;;4.65;86.54;96737.93;225964;1266;22571;-78
2023/12/21 12:00:31;;;;;;;2.70;1.70;;;;;;;4.62;87.19;96719.70;226120;1260;22560;-77
2023/12/21 12:05:33;;;;;;;4.30;1.80;;;;;;;4.63;86.91;96710.56;226020;1259;22592;-77
2023/12/21 12:10:35;;;;;;;5.00;2.20;;;;;;;4.60;87.01;96693.43;226094;1266;22535;-76
2023/12/21 12:15:37;;;;;;;3.10;1.80;;;;;;;4.56;86.72;96677.08;225931;1253;22556;-77
2023/12/21 12:20:44;;;;;;;4.60;2.20;;;;;;;4.52;86.49;96661.52;226210;1266;22559;-77
2023/12/21 12:25:46;;;;;;;4.80;2.10;;;;;;;4.48;86.76;96651.31;226128;1267;24221;-76
2023/12/21 12:30:54;;;;;;;4.00;2.40;;;;;;;4.46;86.62;96637.23;226094;1270;22808;-76
2023/12/21 12:35:56;;;;;;;3.30;2.10;;;;;;;4.45;86.68;96623.34;226243;1267;22567;-75
2023/12/21 12:40:58;;;;;;;3.90;2.40;;;;;;;4.41;86.97;96603.54;226049;1267;22616;-77
2023/12/21 12:46:04;;;;;;;3.20;2.10;;;;;;;4.36;87.36;96594.61;225905;1266;22687;-75
2023/12/21 12:51:11;;;;;;;2.60;1.80;;;;;;;4.28;88.10;96584.26;226147;1266;22565;-75
2023/12/21 12:56:15;;;;;;;25.40;17.20;;;;;;;4.20;88.44;96574.44;227166;1267;22544;-75
2023/12/21 13:01:17;;;;;;;6.70;5.00;;;;;;;4.17;89.24;96557.91;226092;1266;22578;-74
2023/12/21 13:06:20;;;;;;;3.90;1.80;;;;;;;4.15;90.01;96557.84;226255;1267;22555;-75
2023/12/21 13:11:23;;;;;;;2.50;1.80;;;;;;;4.12;90.05;96550.83;226186;1263;24421;-76
2023/12/21 13:16:25;;;;;;;3.70;2.20;;;;;;;4.09;90.36;96532.65;226046;1252;22536;-75
2023/12/21 13:21:27;;;;;;;2.20;1.50;;;;;;;4.09;90.28;96519.06;226084;1270;22543;-76
2023/12/21 13:26:29;;;;;;;4.10;2.60;;;;;;;4.10;90.30;96501.73;226179;1266;22567;-76
2023/12/21 13:31:31;;;;;;;4.00;2.20;;;;;;;4.12;90.30;96487.06;226016;1266;22570;-76
2023/12/21 13:36:34;;;;;;;3.30;2.10;;;;;;;4.14;89.98;96478.74;226023;1251;22558;-77
2023/12/21 13:41:37;;;;;;;4.10;2.00;;;;;;;4.16;89.80;96457.02;226023;1264;22581;-81
2023/12/21 13:46:39;;;;;;;4.70;2.50;;;;;;;4.18;89.77;96437.80;226080;1266;22532;-78
2023/12/21 13:51:41;;;;;;;2.80;1.60;;;;;;;4.18;89.73;96416.36;225958;1253;22576;-76
2023/12/21 13:56:43;;;;;;;2.70;1.70;;;;;;;4.18;90.35;96403.46;226148;1266;22580;-78
2023/12/21 14:01:45;;;;;;;2.60;1.90;;;;;;;4.19;90.27;96389.02;226140;1256;22624;-78
2023/12/21 14:06:48;;;;;;;3.10;2.00;;;;;;;4.20;90.39;96379.02;226092;1251;22924;-77
2023/12/21 14:11:50;;;;;;;4.00;1.60;;;;;;;4.22;90.41;96360.95;226097;1267;25428;-78
2023/12/21 14:16:52;;;;;;;2.90;1.90;;;;;;;4.25;90.14;96346.11;226240;1259;24281;-77
2023/12/21 14:21:54;;;;;;;3.70;2.20;;;;;;;4.28;90.70;96337.18;226326;1271;22938;-77
2023/12/21 14:26:56;;;;;;;2.40;1.50;;;;;;;4.29;90.47;96320.45;226162;1251;22548;-78
2023/12/21 14:31:59;;;;;;;2.30;1.60;;;;;;;4.31;90.80;96309.77;226120;1253;22548;-76
2023/12/21 14:37:02;;;;;;;2.10;1.60;;;;;;;4.31;90.55;96298.21;226099;1255;23027;-78
2023/12/21 14:42:04;;;;;;;4.80;2.10;;;;;;;4.32;90.82;96280.52;226042;1269;23159;-79
2023/12/21 14:47:06;;;;;;;2.70;1.70;;;;;;;4.32;91.82;96257.13;226272;1250;22589;-75
2023/12/21 14:52:08;;;;;;;2.00;1.60;;;;;;;4.33;91.72;96247.48;226084;1266;22547;-78
2023/12/21 14:57:10;;;;;;;2.40;1.50;;;;;;;4.34;91.57;96233.39;225990;1254;22573;-76
2023/12/21 15:02:12;;;;;;;2.70;1.70;;;;;;;4.36;91.31;96216.48;225680;1266;22565;-78
2023/12/21 15:07:15;;;;;;;2.20;1.30;;;;;;;4.40;91.21;96202.96;226121;1269;23166;-78
2023/12/21 15:12:19;;;;;;;3.30;1.40;;;;;;;4.44;91.09;96188.09;226219;1272;25352;-78
2023/12/21 15:17:21;;;;;;;3.70;1.90;;;;;;;4.49;90.87;96167.48;226202;1272;22539;-78
2023/12/21 15:22:24;;;;;;;2.60;1.50;;;;;;;4.53;90.30;96158.85;226368;1272;25838;-78
2023/12/21 15:27:28;;;;;;;2.40;1.50;;;;;;;4.57;90.24;96139.72;226510;1273;22543;-77
2023/12/21 15:32:30;;;;;;;2.70;1.80;;;;;;;4.61;89.72;96121.36;226434;1272;23860;-79
2023/12/21 15:37:32;;;;;;;2.90;1.50;;;;;;;4.65;89.84;96105.60;226514;1267;22861;-77
2023/12/21 15:42:34;;;;;;;2.70;1.50;;;;;;;4.71;89.75;96092.44;226406;1273;22545;-77
2023/12/21 15:47:41;;;;;;;2.80;1.70;;;;;;;4.76;89.16;96081.07;226511;1274;25294;-79
2023/12/21 15:52:44;;;;;;;2.80;1.70;;;;;;;4.82;89.30;96068.69;226374;1272;22541;-77
2023/12/21 15:57:47;;;;;;;2.10;1.60;;;;;;;4.87;89.12;96056.73;226509;1271;25341;-76
2023/12/21 16:02:49;;;;;;;2.30;1.50;;;;;;;4.92;89.01;96046.38;226426;1266;22550;-78
2023/12/21 16:07:51;;;;;;;2.10;1.70;;;;;;;4.99;88.60;96025.59;226414;1272;22562;-79
2023/12/21 16:12:53;;;;;;;2.90;1.50;;;;;;;5.05;88.79;96013.59;226475;1269;22570;-79
2023/12/21 16:17:56;;;;;;;5.30;3.70;;;;;;;5.09;88.65;95988.54;226455;1272;22548;-79
2023/12/21 16:23:00;;;;;;;3.00;1.90;;;;;;;5.14;88.38;95976.27;226489;1269;22551;-78
2023/12/21 16:28:02;;;;;;;3.40;1.90;;;;;;;5.16;88.07;95956.85;226488;1270;22539;-79
2023/12/21 16:33:07;;;;;;;2.20;1.20;;;;;;;5.17;88.07;95943.42;226431;1266;22552;-77
2023/12/21 16:38:10;;;;;;;3.20;1.40;;;;;;;5.17;88.11;95934.89;226458;1269;22555;-78
2023/12/21 16:43:12;;;;;;;2.40;1.60;;;;;;;5.19;87.91;95929.18;226463;1273;22584;-78
2023/12/21 16:48:16;;;;;;;2.20;1.40;;;;;;;5.22;88.07;95923.19;226477;1273;22587;-78
2023/12/21 16:53:18;;;;;;;3.00;1.40;;;;;;;5.26;87.81;95912.92;226463;1269;22549;-78
2023/12/21 16:58:22;;;;;;;3.90;1.70;;;;;;;5.32;88.05;95908.16;226438;1273;22549;-80
2023/12/21 17:03:24;;;;;;;2.30;1.70;;;;;;;5.36;87.73;95898.86;226425;1272;22546;-78
2023/12/21 17:08:26;;;;;;;2.50;1.70;;;;;;;5.38;87.71;95902.50;226375;1266;22516;-77
2023/12/21 17:13:28;;;;;;;3.10;1.60;;;;;;;5.37;88.06;95890.39;226418;1272;22581;-78
2023/12/21 17:18:31;;;;;;;2.60;1.50;;;;;;;5.37;87.85;95876.30;226381;1266;23028;-79
2023/12/21 17:23:33;;;;;;;2.90;1.80;;;;;;;5.35;87.86;95862.08;226513;1272;22540;-77
2023/12/21 17:28:36;;;;;;;2.90;1.70;;;;;;;5.34;88.10;95854.59;226477;1269;23099;-77
2023/12/21 17:33:38;;;;;;;3.60;1.90;;;;;;;5.33;88.21;95858.70;226760;1272;25464;-77
2023/12/21 17:38:40;;;;;;;2.60;1.80;;;;;;;5.30;88.36;95846.30;226367;1274;22554;-77
2023/12/21 17:43:44;;;;;;;2.40;1.90;;;;;;;5.28;88.92;95843.18;226394;1274;22551;-77
2023/12/21 17:48:46;;;;;;;3.60;2.20;;;;;;;5.28;88.91;95839.84;226420;1272;22582;-76
2023/12/21 17:53:49;;;;;;;3.10;1.70;;;;;;;5.27;89.03;95825.36;226485;1273;22544;-76
2023/12/21 17:58:51;;;;;;;2.60;1.70;;;;;;;5.22;89.31;95805.52;226422;1266;22646;-77
2023/12/21 18:03:53;;;;;;;5.20;2.40;;;;;;;5.20;89.79;95817.65;226450;1270;22553;-78
2023/12/21 18:08:56;;;;;;;3.00;1.90;;;;;;;5.18;90.15;95809.63;226459;1270;22537;-77
2023/12/21 18:13:58;;;;;;;4.30;2.30;;;;;;;5.18;90.09;95802.45;226600;1272;22646;-77
2023/12/21 18:19:04;;;;;;;3.80;2.00;;;;;;;5.19;89.98;95779.03;226473;1267;22547;-78
2023/12/21 18:24:07;;;;;;;3.30;1.70;;;;;;;5.17;89.43;95778.41;226797;1272;22532;-78
2023/12/21 18:29:10;;;;;;;3.90;2.40;;;;;;;5.12;89.83;95764.35;226618;1272;22544;-78
2023/12/21 18:34:12;;;;;;;3.80;2.30;;;;;;;5.10;89.87;95745.33;226482;1274;25233;-81
2023/12/21 18:39:15;;;;;;;4.00;2.20;;;;;;;5.11;89.48;95737.23;226348;1272;22556;-78
2023/12/21 18:44:17;;;;;;;2.70;2.00;;;;;;;5.11;89.57;95735.66;226488;1269;24374;-78
2023/12/21 18:49:19;;;;;;;4.00;2.00;;;;;;;5.14;89.46;95735.57;226583;1272;22555;-77
2023/12/21 18:54:22;;;;;;;3.50;2.10;;;;;;;5.24;89.28;95722.86;226491;1272;22561;-78
2023/12/21 18:59:24;;;;;;;3.80;2.20;;;;;;;5.38;89.43;95712.46;226423;1252;24379;-79
2023/12/21 19:04:27;;;;;;;4.00;2.10;;;;;;;5.47;88.82;95703.66;226490;1257;22541;-78
2023/12/21 19:09:29;;;;;;;4.20;2.70;;;;;;;5.55;88.76;95705.31;226485;1274;22528;-79
2023/12/21 19:14:31;;;;;;;3.10;1.90;;;;;;;5.62;88.98;95701.11;226517;1274;24284;-80
2023/12/21 19:19:34;;;;;;;3.50;2.20;;;;;;;5.69;89.08;95687.37;226487;1272;22552;-79
2023/12/21 19:24:36;;;;;;;3.80;2.10;;;;;;;5.76;88.62;95678.70;226449;1273;22545;-79
2023/12/21 19:29:38;;;;;;;4.00;2.00;;;;;;;5.80;88.76;95676.25;226445;1272;22568;-77
2023/12/21 19:34:40;;;;;;;2.10;1.50;;;;;;;5.83;88.77;95661.33;226439;1274;22547;-78
2023/12/21 19:39:42;;;;;;;2.70;1.80;;;;;;;5.87;88.76;95664.19;226557;1251;23764;-79
2023/12/21 19:44:46;;;;;;;3.60;1.70;;;;;;;5.89;88.84;95660.38;226524;1272;22572;-78
2023/12/21 19:49:49;;;;;;;1.20;1.10;;;;;;;5.88;89.19;95650.08;226513;1274;24279;-78
2023/12/21 19:54:54;;;;;;;2.70;1.90;;;;;;;5.88;89.53;95651.65;226489;1271;24508;-77
2023/12/21 19:59:56;;;;;;;4.00;2.20;;;;;;;5.88;89.96;95669.35;226521;1274;22577;-77
2023/12/21 20:04:58;;;;;;;3.80;2.10;;;;;;;5.86;90.45;95677.58;226476;1273;22537;-77
2023/12/21 20:10:00;;;;;;;2.90;2.20;;;;;;;5.84;90.34;95679.68;226460;1274;22540;-77
2023/12/21 20:15:03;;;;;;;4.70;2.60;;;;;;;5.82;90.25;95693.27;226457;1269;24828;-77
2023/12/21 20:20:07;;;;;;;7.00;3.90;;;;;;;5.80;90.47;95702.39;226495;1274;22999;-75
2023/12/21 20:25:11;;;;;;;5.40;3.60;;;;;;;5.80;90.91;95721.67;226472;1272;22591;-77
2023/12/21 20:30:13;;;;;;;6.50;3.00;;;;;;;5.79;90.55;95731.09;226443;1270;22544;-76
2023/12/21 20:35:16;;;;;;;3.50;2.30;;;;;;;5.78;90.60;95728.93;226555;1271;22537;-75
2023/12/21 20:40:19;;;;;;;5.70;3.10;;;;;;;5.75;90.94;95739.30;226395;1269;22635;-75
2023/12/21 20:45:22;;;;;;;4.30;2.60;;;;;;;5.69;90.79;95701.88;226455;1274;22948;-75
2023/12/21 20:50:24;;;;;;;3.70;2.40;;;;;;;5.61;90.99;95703.66;226555;1271;26019;-76
2023/12/21 20:55:27;;;;;;;3.20;2.00;;;;;;;5.54;91.02;95685.88;226517;1272;22705;-74
2023/12/21 21:00:30;;;;;;;3.40;1.70;;;;;;;5.48;91.07;95668.43;226444;1266;24234;-76
2023/12/21 21:05:32;;;;;;;4.50;2.40;;;;;;;5.42;91.00;95656.59;226383;1273;22545;-76
2023/12/21 21:10:37;;;;;;;2.70;1.70;;;;;;;5.38;90.81;95671.83;226428;1273;22547;-76
2023/12/21 21:15:39;;;;;;;3.90;2.30;;;;;;;5.35;91.11;95688.89;226499;1274;24687;-76
2023/12/21 21:20:41;;;;;;;3.70;2.10;;;;;;;5.31;91.11;95707.80;226348;1272;22608;-77
2023/12/21 21:25:44;;;;;;;2.70;2.20;;;;;;;5.26;91.06;95693.18;226453;1272;22615;-76
2023/12/21 21:30:48;;;;;;;4.10;2.30;;;;;;;5.21;90.94;95701.55;226402;1269;22555;-76
2023/12/21 21:36:01;;;;;;;2.60;1.80;;;;;;;5.14;90.73;95723.65;226428;1273;22531;-76
2023/12/21 21:41:05;;;;;;;4.60;2.40;;;;;;;5.10;90.67;95742.12;226407;1274;22637;-74
2023/12/21 21:46:08;;;;;;;2.80;1.90;;;;;;;5.06;91.07;95745.33;226449;1273;24285;-77
2023/12/21 21:51:11;;;;;;;4.80;2.00;;;;;;;5.03;90.75;95755.58;226527;1273;22544;-77
2023/12/21 21:56:19;;;;;;;3.10;1.90;;;;;;;5.00;90.65;95762.98;226531;1269;22560;-78
2023/12/21 22:01:22;;;;;;;2.60;1.70;;;;;;;4.96;90.79;95759.52;226367;1266;22695;-77
2023/12/21 22:06:26;;;;;;;2.10;1.10;;;;;;;4.92;90.94;95766.56;226396;1273;22561;-77
2023/12/21 22:11:28;;;;;;;3.90;1.50;;;;;;;4.89;90.96;95763.85;226502;1272;22654;-75
2023/12/21 22:16:31;;;;;;;3.50;1.70;;;;;;;4.88;91.42;95768.59;226509;1273;22552;-78
2023/12/21 22:21:34;;;;;;;2.80;1.40;;;;;;;4.88;91.11;95752.60;226472;1274;22552;-78
2023/12/21 22:26:38;;;;;;;2.40;1.30;;;;;;;4.87;90.59;95741.56;226554;1273;22536;-77
2023/12/21 22:31:40;;;;;;;4.60;1.30;;;;;;;4.83;90.73;95746.85;226389;1269;25436;-77
2023/12/21 22:36:42;;;;;;;4.20;1.60;;;;;;;4.78;90.48;95771.73;226399;1269;22563;-77
2023/12/21 22:41:44;;;;;;;4.30;1.60;;;;;;;4.77;90.36;95789.34;226492;1266;22567;-77
2023/12/21 22:46:46;;;;;;;4.20;1.40;;;;;;;4.75;90.36;95801.11;226519;1273;22631;-76
2023/12/21 22:51:48;;;;;;;5.20;1.90;;;;;;;4.71;90.02;95804.58;226439;1274;22544;-77
2023/12/21 22:56:50;;;;;;;4.90;1.50;;;;;;;4.68;89.69;95828.27;226549;1274;22527;-76
2023/12/21 23:01:52;;;;;;;3.70;1.50;;;;;;;4.64;89.37;95840.83;226488;1272;22528;-77
2023/12/21 23:06:55;;;;;;;3.00;1.60;;;;;;;4.60;89.23;95837.98;226434;1273;22549;-77
2023/12/21 23:11:57;;;;;;;6.40;1.70;;;;;;;4.54;88.95;95845.89;226361;1274;22913;-77
2023/12/21 23:16:59;;;;;;;5.20;1.60;;;;;;;4.47;88.94;95828.75;226461;1274;22547;-76
2023/12/21 23:22:01;;;;;;;6.90;1.90;;;;;;;4.41;88.61;95838.19;226562;1273;23065;-76
2023/12/21 23:27:05;;;;;;;6.80;1.60;;;;;;;4.41;88.49;95841.89;226367;1274;145244;-76
2023/12/21 23:32:07;;;;;;;7.30;1.80;;;;;;;4.43;88.47;95841.46;226444;1274;22618;-77
2023/12/21 23:37:09;;;;;;;6.00;1.90;;;;;;;4.44;88.06;95839.09;226519;1274;22552;-77
2023/12/21 23:42:13;;;;;;;4.30;1.30;;;;;;;4.43;88.42;95833.38;226503;1274;22674;-77
2023/12/21 23:47:15;;;;;;;3.90;1.60;;;;;;;4.38;88.21;95841.95;226528;1273;22606;-76